Time;durP1;ratioP1;P1;durP2;ratioP2;P2;SDS_P1;SDS_P2;PMS_P1;PMS_P2;Temp;Humidity;BMP_temperature;BMP_pressure;BME280_temperature;BME280_humidity;BME280_pressure;Samples;Min_cycle;Max_cycle;Signal;HPM_P1;HPM_P2
2022/02/02 00:04:15;;;;;;;2.20;2.10;;;;;;;;;;4789901;29;20050;-86
2022/02/02 00:06:56;;;;;;;3.30;1.63;;;;;;;;;;4806662;29;20055;-89
2022/02/02 00:09:25;;;;;;;4.03;2.38;;;;;;;;;;4802328;29;20050;-87
2022/02/02 00:14:32;;;;;;;2.65;2.45;;;;;;;;;;4803470;29;20077;-86
2022/02/02 00:17:06;;;;;;;1.52;1.42;;;;;;;;;;4790032;29;20077;-87
2022/02/02 00:19:41;;;;;;;1.85;1.73;;;;;;;;;;4789682;29;20078;-87
2022/02/02 00:22:22;;;;;;;1.95;1.83;;;;;;;;;;4821122;29;20465;-87
2022/02/02 00:25:04;;;;;;;1.52;1.45;;;;;;;;;;4810669;29;20055;-88
2022/02/02 00:27:33;;;;;;;1.58;1.48;;;;;;;;;;4810896;29;20058;-85
2022/02/02 00:30:03;;;;;;;1.55;1.40;;;;;;;;;;4812475;29;20051;-84
2022/02/02 00:35:03;;;;;;;1.53;1.53;;;;;;;;;;4785024;30;20079;-84
2022/02/02 00:37:31;;;;;;;1.60;1.50;;;;;;;;;;4784782;29;20293;-86
2022/02/02 00:39:59;;;;;;;1.38;1.27;;;;;;;;;;4784295;29;20054;-88
2022/02/02 00:42:29;;;;;;;1.98;1.88;;;;;;;;;;4785731;30;20055;-84
2022/02/02 00:44:57;;;;;;;2.88;2.67;;;;;;;;;;4785350;29;20052;-85
2022/02/02 00:47:26;;;;;;;1.90;1.58;;;;;;;;;;4769317;30;20051;-86
2022/02/02 00:49:55;;;;;;;1.98;1.88;;;;;;;;;;4804518;29;20485;-88
2022/02/02 00:52:25;;;;;;;1.92;1.83;;;;;;;;;;4785678;29;20577;-89
2022/02/02 00:54:53;;;;;;;2.53;2.33;;;;;;;;;;4769696;30;20115;-90
2022/02/02 00:57:23;;;;;;;1.75;1.65;;;;;;;;;;4810706;29;20058;-86
2022/02/02 00:59:51;;;;;;;1.98;1.75;;;;;;;;;;4820619;29;20050;-85
2022/02/02 01:02:19;;;;;;;4.72;1.63;;;;;;;;;;4805760;29;20057;-88
2022/02/02 01:04:48;;;;;;;2.00;1.90;;;;;;;;;;4790046;29;20452;-88
2022/02/02 01:10:13;;;;;;;1.42;1.30;;;;;;;;;;4766502;30;20481;-88
2022/02/02 01:21:16;;;;;;;2.22;1.95;;;;;;;;;;4773751;30;20048;-85
2022/02/02 01:29:18;;;;;;;1.73;1.63;;;;;;;;;;4787118;30;20047;-88
2022/02/02 01:31:46;;;;;;;2.17;1.42;;;;;;;;;;4756983;30;20063;-87
2022/02/02 01:34:14;;;;;;;1.55;1.45;;;;;;;;;;4757352;30;20129;-87
2022/02/02 01:36:42;;;;;;;2.05;1.95;;;;;;;;;;4741853;30;20051;-86
2022/02/02 01:39:13;;;;;;;3.00;2.75;;;;;;;;;;4771010;30;20063;-85
2022/02/02 01:41:44;;;;;;;2.88;1.85;;;;;;;;;;4756893;30;20055;-88
2022/02/02 01:44:22;;;;;;;1.98;1.67;;;;;;;;;;4787087;30;20051;-87
2022/02/02 01:46:52;;;;;;;2.03;1.88;;;;;;;;;;4771934;30;20055;-85
2022/02/02 01:52:16;;;;;;;3.03;2.25;;;;;;;;;;4770977;30;20078;-87
2022/02/02 01:57:34;;;;;;;2.13;1.95;;;;;;;;;;4810609;29;20058;-84
2022/02/02 02:00:01;;;;;;;3.33;2.03;;;;;;;;;;4822311;29;20562;-84
2022/02/02 02:02:29;;;;;;;2.35;2.25;;;;;;;;;;4776846;30;20074;-85
2022/02/02 02:04:58;;;;;;;2.00;1.90;;;;;;;;;;4787289;29;20066;-85
2022/02/02 02:07:26;;;;;;;1.63;1.30;;;;;;;;;;4774211;29;20058;-83
2022/02/02 02:09:57;;;;;;;2.25;1.52;;;;;;;;;;4793088;29;20060;-85
2022/02/02 02:12:29;;;;;;;1.42;1.33;;;;;;;;;;4786689;29;20058;-86
2022/02/02 02:15:03;;;;;;;1.92;1.83;;;;;;;;;;4771504;30;20075;-85
2022/02/02 02:17:31;;;;;;;4.28;1.40;;;;;;;;;;4770289;30;20047;-84
2022/02/02 02:19:59;;;;;;;1.30;1.30;;;;;;;;;;4799675;29;20050;-83
2022/02/02 02:22:32;;;;;;;1.58;1.50;;;;;;;;;;4789209;29;20065;-85
2022/02/02 02:25:00;;;;;;;1.45;1.35;;;;;;;;;;4787700;29;20424;-86
2022/02/02 02:27:28;;;;;;;1.55;1.45;;;;;;;;;;4787753;29;20497;-83
2022/02/02 02:57:25;;;;;;;1.27;1.27;;;;;;;;;;4785238;29;20058;-82
2022/02/02 03:03:19;;;;;;;2.47;2.25;;;;;;;;;;4786466;29;20058;-86
2022/02/02 03:30:14;;;;;;;4.57;2.35;;;;;;;;;;4753575;30;20056;-84
2022/02/02 03:57:31;;;;;;;3.67;2.40;;;;;;;;;;4811715;29;20054;-83
2022/02/02 04:03:05;;;;;;;2.65;2.45;;;;;;;;;;4821562;29;20058;-85
2022/02/02 04:05:42;;;;;;;2.00;1.85;;;;;;;;;;4821198;29;20056;-85
2022/02/02 04:10:45;;;;;;;3.47;2.20;;;;;;;;;;4805037;29;20054;-84
2022/02/02 04:13:32;;;;;;;3.20;2.38;;;;;;;;;;4803820;29;20050;-83
2022/02/02 04:54:28;;;;;;;4.28;2.90;;;;;;;;;;4777442;29;20058;-85
2022/02/02 04:59:45;;;;;;;2.08;1.55;;;;;;;;;;4788441;29;20062;-86
2022/02/02 05:07:43;;;;;;;6.90;2.40;;;;;;;;;;4757497;29;20422;-84
2022/02/02 05:21:37;;;;;;;11.48;4.25;;;;;;;;;;4792843;29;20053;-81
2022/02/02 05:51:23;;;;;;;4.20;2.33;;;;;;;;;;4787115;29;20046;-84
2022/02/02 05:53:52;;;;;;;7.35;2.22;;;;;;;;;;4770763;30;20055;-84
2022/02/02 05:56:21;;;;;;;3.45;1.83;;;;;;;;;;4787655;29;20039;-82
2022/02/02 05:58:49;;;;;;;7.70;3.05;;;;;;;;;;4763645;29;20063;-84
2022/02/02 06:01:32;;;;;;;13.40;2.78;;;;;;;;;;4756956;29;20143;-80
2022/02/02 06:04:01;;;;;;;3.53;1.67;;;;;;;;;;4767602;30;20071;-85
2022/02/02 06:06:31;;;;;;;4.15;2.15;;;;;;;;;;4771331;30;20059;-82
2022/02/02 06:09:00;;;;;;;10.70;5.05;;;;;;;;;;4785772;29;20055;-85
2022/02/02 06:11:28;;;;;;;2.90;2.70;;;;;;;;;;4770289;30;20050;-85
2022/02/02 06:13:58;;;;;;;10.38;2.83;;;;;;;;;;4770181;30;20055;-84
2022/02/02 06:16:28;;;;;;;3.67;2.22;;;;;;;;;;4770597;29;20525;-82
2022/02/02 06:18:58;;;;;;;3.22;2.17;;;;;;;;;;4770514;30;20067;-80
2022/02/02 06:21:28;;;;;;;;;;;;;;;;;;4771098;30;20082;-86
2022/02/02 06:23:59;;;;;;;2.63;1.60;;;;;;;;;;4755212;30;20368;-86
2022/02/02 06:26:28;;;;;;;3.72;2.25;;;;;;;;;;4770811;30;20051;-86
2022/02/02 06:28:57;;;;;;;6.60;2.78;;;;;;;;;;4769702;30;20514;-86
2022/02/02 06:31:27;;;;;;;2.10;1.70;;;;;;;;;;4787027;29;20063;-85
2022/02/02 06:33:59;;;;;;;4.60;2.08;;;;;;;;;;4769720;30;20062;-84
2022/02/02 06:36:32;;;;;;;1.48;1.38;;;;;;;;;;4786387;29;20054;-84
2022/02/02 06:39:00;;;;;;;4.60;2.05;;;;;;;;;;4786349;30;20394;-86
2022/02/02 06:41:29;;;;;;;2.95;1.45;;;;;;;;;;4770132;29;20071;-86
2022/02/02 06:43:57;;;;;;;2.50;2.30;;;;;;;;;;4784098;29;20604;-83
2022/02/02 06:46:32;;;;;;;2.60;1.88;;;;;;;;;;4770332;30;20051;-85
2022/02/02 06:49:01;;;;;;;1.48;1.38;;;;;;;;;;4769713;29;20063;-82
2022/02/02 06:51:44;;;;;;;1.73;1.63;;;;;;;;;;4762383;29;20068;-83
2022/02/02 06:54:25;;;;;;;1.85;1.75;;;;;;;;;;4737620;30;20436;-80
2022/02/02 06:57:02;;;;;;;2.38;2.17;;;;;;;;;;4770273;29;20081;-81
2022/02/02 07:02:47;;;;;;;10.88;2.72;;;;;;;;;;4787953;29;20070;-82
2022/02/02 07:05:27;;;;;;;6.30;2.38;;;;;;;;;;4787317;29;20055;-82
2022/02/02 07:11:09;;;;;;;3.17;2.65;;;;;;;;;;4769713;30;20486;-82
2022/02/02 07:16:16;;;;;;;7.70;2.00;;;;;;;;;;4754289;30;20410;-84
2022/02/02 07:21:46;;;;;;;6.32;2.20;;;;;;;;;;4768167;29;20055;-83
2022/02/02 07:29:38;;;;;;;3.58;3.15;;;;;;;;;;4784236;30;20058;-84
2022/02/02 07:34:42;;;;;;;5.38;3.00;;;;;;;;;;4785788;30;20568;-84
2022/02/02 07:37:17;;;;;;;11.18;3.00;;;;;;;;;;4754971;30;20410;-85
2022/02/02 07:39:45;;;;;;;8.95;2.95;;;;;;;;;;4753491;30;20513;-85
2022/02/02 07:42:15;;;;;;;3.90;2.65;;;;;;;;;;4754913;30;20043;-85
2022/02/02 07:44:46;;;;;;;4.05;3.28;;;;;;;;;;4753532;30;20592;-87
2022/02/02 07:47:16;;;;;;;8.68;3.30;;;;;;;;;;4740245;30;20486;-87
2022/02/02 07:49:49;;;;;;;6.03;3.35;;;;;;;;;;4768499;30;20062;-85
2022/02/02 07:52:19;;;;;;;;;;;;;;;;;;4781661;29;20054;-85
2022/02/02 07:54:49;;;;;;;5.20;3.03;;;;;;;;;;4803289;29;19925;-85
2022/02/02 07:57:26;;;;;;;6.95;2.75;;;;;;;;;;4799224;29;20061;-86
2022/02/02 07:59:59;;;;;;;3.20;2.30;;;;;;;;;;4820535;29;20523;-87
2022/02/02 08:05:01;;;;;;;5.93;4.70;;;;;;;;;;4789498;29;20042;-83
2022/02/02 08:07:36;;;;;;;8.18;3.60;;;;;;;;;;4804718;29;20577;-82
2022/02/02 08:10:20;;;;;;;13.75;4.03;;;;;;;;;;4789195;29;20065;-81
2022/02/02 08:12:53;;;;;;;11.00;3.85;;;;;;;;;;4804688;29;20051;-78
2022/02/02 08:15:22;;;;;;;14.45;3.35;;;;;;;;;;4804615;29;20054;-78
2022/02/02 08:17:53;;;;;;;7.75;4.25;;;;;;;;;;4804231;29;20449;-81
2022/02/02 08:20:22;;;;;;;5.45;3.90;;;;;;;;;;4789489;29;20061;-82
2022/02/02 08:22:50;;;;;;;15.27;5.28;;;;;;;;;;4790012;29;20058;-82
2022/02/02 08:25:27;;;;;;;8.40;4.45;;;;;;;;;;4823981;29;20058;-83
2022/02/02 08:27:58;;;;;;;7.18;2.50;;;;;;;;;;4823694;29;20062;-86
2022/02/02 08:30:28;;;;;;;11.25;4.90;;;;;;;;;;4801100;29;20054;-85
2022/02/02 08:32:57;;;;;;;3.08;2.83;;;;;;;;;;4773503;29;20058;-85
2022/02/02 08:35:28;;;;;;;9.13;5.15;;;;;;;;;;4789950;29;20066;-86
2022/02/02 08:40:49;;;;;;;9.55;4.15;;;;;;;;;;4789512;29;20047;-83
2022/02/02 08:43:24;;;;;;;12.90;4.30;;;;;;;;;;4789392;29;20068;-82
2022/02/02 08:45:57;;;;;;;11.73;3.17;;;;;;;;;;4789544;29;20397;-84
2022/02/02 08:48:27;;;;;;;6.57;5.40;;;;;;;;;;4806019;29;20058;-84
2022/02/02 08:51:00;;;;;;;5.40;3.00;;;;;;;;;;4806911;29;20065;-84
2022/02/02 08:53:35;;;;;;;10.18;3.25;;;;;;;;;;4802729;29;20143;-83
2022/02/02 09:01:49;;;;;;;9.48;6.28;;;;;;;;;;4790410;29;20050;-82
2022/02/02 09:07:08;;;;;;;9.93;4.78;;;;;;;;;;4809815;29;20046;-84
2022/02/02 09:09:56;;;;;;;7.95;2.83;;;;;;;;;;4771996;29;20070;-85
2022/02/02 09:23:33;;;;;;;10.40;5.82;;;;;;;;;;4802255;29;20277;-85
2022/02/02 09:31:31;;;;;;;7.72;4.82;;;;;;;;;;4802081;29;20054;-85
2022/02/02 09:34:08;;;;;;;8.30;3.58;;;;;;;;;;4801428;29;20066;-85
2022/02/02 09:36:43;;;;;;;2.83;2.60;;;;;;;;;;4801497;29;20042;-86
2022/02/02 09:39:29;;;;;;;9.20;4.32;;;;;;;;;;4802026;29;20529;-85
2022/02/02 09:42:03;;;;;;;16.15;4.93;;;;;;;;;;4801335;29;20062;-83
2022/02/02 09:44:37;;;;;;;26.02;6.55;;;;;;;;;;4784369;29;20047;-85
2022/02/02 09:47:30;;;;;;;5.47;4.22;;;;;;;;;;4806888;29;20054;-80
2022/02/02 09:50:04;;;;;;;17.77;6.05;;;;;;;;;;4815648;29;20062;-82
2022/02/02 09:52:38;;;;;;;12.48;4.88;;;;;;;;;;4800111;29;20589;-84
2022/02/02 09:55:14;;;;;;;7.20;3.15;;;;;;;;;;4799883;29;20520;-83
2022/02/02 09:58:53;;;;;;;5.70;4.35;;;;;;;;;;4784168;29;20051;-83
2022/02/02 10:00:48;;;;;;;7.05;5.00;;;;;;;;;;4793512;29;20072;-84
2022/02/02 10:05:59;;;;;;;7.68;3.75;;;;;;;;;;4817800;29;20153;-85
2022/02/02 10:14:16;;;;;;;17.58;4.03;;;;;;;;;;4754536;30;21332;-84
2022/02/02 10:16:46;;;;;;;9.40;3.80;;;;;;;;;;4783002;30;20054;-85
2022/02/02 10:19:15;;;;;;;26.48;6.22;;;;;;;;;;4782726;30;20755;-84
2022/02/02 10:21:44;;;;;;;17.15;7.20;;;;;;;;;;4782998;29;20078;-86
2022/02/02 10:24:12;;;;;;;11.43;4.45;;;;;;;;;;4782868;30;20055;-85
2022/02/02 10:26:45;;;;;;;14.05;4.25;;;;;;;;;;4766810;30;20106;-85
2022/02/02 10:29:16;;;;;;;10.60;4.68;;;;;;;;;;4766189;30;20062;-86
2022/02/02 10:31:48;;;;;;;7.85;2.95;;;;;;;;;;4766808;30;20059;-89
2022/02/02 10:34:18;;;;;;;20.17;4.30;;;;;;;;;;4768360;30;20078;-92
2022/02/02 10:37:06;;;;;;;22.77;4.47;;;;;;;;;;4783055;29;20755;-85
2022/02/02 10:39:45;;;;;;;8.98;3.95;;;;;;;;;;4771868;29;20567;-91
2022/02/02 10:42:34;;;;;;;2.90;2.70;;;;;;;;;;4721039;30;20063;-92
2022/02/02 10:45:17;;;;;;;5.82;3.28;;;;;;;;;;4714928;30;20063;-83
2022/02/02 10:47:48;;;;;;;7.78;3.65;;;;;;;;;;4745115;30;20565;-84
2022/02/02 10:50:38;;;;;;;5.30;2.95;;;;;;;;;;4752007;30;20047;-84
2022/02/02 10:53:29;;;;;;;11.55;4.93;;;;;;;;;;4731364;30;20052;-82
2022/02/02 11:07:25;;;;;;;22.65;5.15;;;;;;;;;;4744046;30;20064;-84
2022/02/02 11:09:53;;;;;;;;;;;;;;;;;;4743525;30;20155;-83
2022/02/02 11:12:25;;;;;;;7.03;2.70;;;;;;;;;;4731061;30;20436;-82
2022/02/02 11:15:11;;;;;;;7.82;2.45;;;;;;;;;;4765916;30;20083;-82
2022/02/02 11:17:42;;;;;;;6.15;4.15;;;;;;;;;;4765288;30;20052;-84
2022/02/02 11:20:13;;;;;;;4.88;4.15;;;;;;;;;;4765439;29;20059;-81
2022/02/02 11:22:41;;;;;;;;;;;;;;;;;;4782733;30;20062;-80
2022/02/02 11:25:09;;;;;;;4.47;4.07;;;;;;;;;;4768094;29;20741;-81
2022/02/02 11:27:45;;;;;;;6.60;3.90;;;;;;;;;;4799679;29;20067;-81
2022/02/02 11:30:25;;;;;;;7.40;3.40;;;;;;;;;;4768440;29;20046;-83
2022/02/02 11:32:55;;;;;;;8.85;4.25;;;;;;;;;;4783588;29;20057;-82
2022/02/02 11:35:28;;;;;;;3.88;3.22;;;;;;;;;;4768967;29;20055;-82
2022/02/02 11:38:26;;;;;;;4.43;3.88;;;;;;;;;;4741306;29;20746;-83
2022/02/02 11:46:52;;;;;;;11.65;4.75;;;;;;;;;;4801471;29;20504;-86
2022/02/02 11:49:23;;;;;;;5.28;2.08;;;;;;;;;;4789711;29;20060;-81
2022/02/02 11:52:01;;;;;;;15.98;5.78;;;;;;;;;;4777255;29;20442;-84
2022/02/02 11:54:41;;;;;;;13.45;5.38;;;;;;;;;;4765426;30;20063;-83
2022/02/02 11:57:29;;;;;;;5.00;3.80;;;;;;;;;;4794066;29;20055;-81
2022/02/02 12:00:30;;;;;;;22.40;5.03;;;;;;;;;;4800508;29;20050;-82
2022/02/02 12:18:56;;;;;;;7.53;4.18;;;;;;;;;;4781619;29;20850;-84
2022/02/02 12:48:08;;;;;;;2.92;2.65;;;;;;;;;;4799857;29;20059;-76
2022/02/02 12:53:52;;;;;;;2.40;2.20;;;;;;;;;;4798374;29;20057;-79
2022/02/02 12:56:32;;;;;;;2.83;2.13;;;;;;;;;;4793739;29;20391;-78
2022/02/02 12:59:32;;;;;;;1.33;1.33;;;;;;;;;;4795134;29;20042;-80
2022/02/02 13:02:07;;;;;;;1.65;1.55;;;;;;;;;;4798394;29;20046;-81
2022/02/02 13:04:36;;;;;;;1.50;1.33;;;;;;;;;;4767814;29;20066;-81
2022/02/02 13:07:08;;;;;;;1.08;1.08;;;;;;;;;;4799235;29;20066;-80
2022/02/02 13:09:37;;;;;;;3.47;3.17;;;;;;;;;;4747607;30;20047;-80
2022/02/02 13:12:24;;;;;;;10.80;1.70;;;;;;;;;;4749626;30;20063;-80
2022/02/02 13:17:46;;;;;;;10.00;1.33;;;;;;;;;;4766094;30;20858;-76
2022/02/02 13:20:17;;;;;;;2.47;1.50;;;;;;;;;;4765714;30;20059;-78
2022/02/02 13:22:48;;;;;;;1.10;1.08;;;;;;;;;;4766593;30;20056;-79
2022/02/02 13:25:31;;;;;;;1.55;1.40;;;;;;;;;;4765923;30;20063;-79
2022/02/02 13:28:01;;;;;;;3.08;2.58;;;;;;;;;;4766481;29;20757;-79
2022/02/02 13:30:51;;;;;;;4.05;3.63;;;;;;;;;;4766386;30;20064;-78
2022/02/02 13:33:30;;;;;;;7.97;2.15;;;;;;;;;;4765864;30;20074;-78
2022/02/02 13:44:37;;;;;;;4.18;2.90;;;;;;;;;;4748957;30;20059;-79
2022/02/02 13:47:37;;;;;;;4.28;3.75;;;;;;;;;;4766245;30;20055;-79
2022/02/02 13:50:40;;;;;;;5.93;4.15;;;;;;;;;;4750953;30;20055;-78
2022/02/02 13:54:15;;;;;;;12.43;2.83;;;;;;;;;;4781688;29;20055;-78
2022/02/02 13:59:00;;;;;;;7.85;3.22;;;;;;;;;;4818677;29;20058;-78
2022/02/02 14:01:44;;;;;;;6.00;2.95;;;;;;;;;;4819347;29;20066;-78
2022/02/02 14:31:03;;;;;;;8.75;5.18;;;;;;;;;;4770845;29;20058;-81
2022/02/02 14:31:46;;;;;;;7.20;2.55;;;;;;;;;;4788168;29;20406;-80
2022/02/02 14:34:34;;;;;;;6.27;3.93;;;;;;;;;;4807698;29;20049;-80
2022/02/02 14:37:05;;;;;;;10.00;3.85;;;;;;;;;;4807900;29;20050;-80
2022/02/02 14:40:00;;;;;;;4.50;2.85;;;;;;;;;;4798824;29;20830;-81
2022/02/02 14:42:32;;;;;;;7.30;3.78;;;;;;;;;;4786775;29;20066;-81
2022/02/02 14:45:09;;;;;;;5.97;3.22;;;;;;;;;;4809744;29;20065;-81
2022/02/02 14:47:46;;;;;;;9.98;3.60;;;;;;;;;;4818262;29;20696;-81
2022/02/02 14:52:54;;;;;;;7.20;3.45;;;;;;;;;;4784064;29;20058;-81
2022/02/02 15:28:22;;;;;;;0.90;0.90;;;;;;;;;;4763140;30;20048;-79
2022/02/02 15:30:57;;;;;;;1.92;1.83;;;;;;;;;;4764205;30;20047;-80
2022/02/02 15:33:28;;;;;;;1.27;1.27;;;;;;;;;;4763283;30;20055;-80
2022/02/02 15:36:19;;;;;;;1.35;1.25;;;;;;;;;;4763518;30;20063;-80
2022/02/02 15:38:51;;;;;;;1.70;1.60;;;;;;;;;;4763447;30;20060;-79
2022/02/02 15:41:26;;;;;;;2.15;1.83;;;;;;;;;;4763839;30;20058;-81
2022/02/02 15:58:11;;;;;;;6.43;2.15;;;;;;;;;;4795588;29;20417;-79
2022/02/02 16:03:43;;;;;;;2.92;2.08;;;;;;;;;;4771097;29;20062;-79
2022/02/02 16:06:19;;;;;;;8.20;3.95;;;;;;;;;;4782632;29;20062;-79
2022/02/02 16:08:51;;;;;;;1.55;1.45;;;;;;;;;;4767418;29;20058;-79
2022/02/02 16:11:25;;;;;;;8.18;3.15;;;;;;;;;;4799553;29;20061;-79
2022/02/02 16:14:04;;;;;;;7.50;2.67;;;;;;;;;;4798190;29;20062;-80
2022/02/02 16:19:20;;;;;;;2.22;1.90;;;;;;;;;;4799265;29;20063;-79
2022/02/02 16:25:07;;;;;;;5.50;5.00;;;;;;;;;;4780798;29;20351;-80
2022/02/02 16:36:14;;;;;;;4.63;2.28;;;;;;;;;;4763146;30;20067;-81
2022/02/02 16:38:39;;;;;;;4.03;3.70;;;;;;;;;;4762831;30;20055;-81
2022/02/02 16:43:06;;;;;;;6.10;3.63;;;;;;;;;;4747943;30;20082;-83
2022/02/02 16:43:58;;;;;;;5.50;2.63;;;;;;;;;;4762656;30;20052;-82
2022/02/02 16:46:26;;;;;;;9.77;3.03;;;;;;;;;;4767800;29;20051;-80
2022/02/02 16:48:54;;;;;;;2.65;2.40;;;;;;;;;;4781180;29;20066;-80
2022/02/02 16:51:22;;;;;;;9.32;2.40;;;;;;;;;;4794185;29;20417;-80
2022/02/02 16:53:52;;;;;;;15.43;4.82;;;;;;;;;;4784639;29;20055;-79
2022/02/02 16:56:32;;;;;;;4.70;3.35;;;;;;;;;;4796651;29;20139;-79
2022/02/02 17:32:38;;;;;;;8.88;3.92;;;;;;;;;;4801224;29;20055;-79
2022/02/02 17:40:13;;;;;;;3.75;2.05;;;;;;;;;;4785168;29;20062;-79
2022/02/02 18:17:31;;;;;;;3.25;1.92;;;;;;;;;;4782678;30;20383;-87
2022/02/02 18:19:21;;;;;;;2.67;2.45;;;;;;;;;;4783408;30;20059;-87
2022/02/02 18:21:51;;;;;;;2.58;2.38;;;;;;;;;;4766781;29;20055;-86
2022/02/02 18:24:34;;;;;;;4.63;3.38;;;;;;;;;;4767098;30;20493;-86
2022/02/02 18:27:13;;;;;;;11.45;4.43;;;;;;;;;;4767488;30;20059;-86
2022/02/02 18:29:59;;;;;;;3.47;3.22;;;;;;;;;;4750952;29;20066;-86
2022/02/02 18:32:43;;;;;;;4.97;3.28;;;;;;;;;;4783013;30;20051;-86
2022/02/02 18:35:17;;;;;;;4.70;2.83;;;;;;;;;;4737766;30;20051;-87
2022/02/02 18:41:25;;;;;;;2.22;2.13;;;;;;;;;;4766777;30;20047;-88
2022/02/02 19:01:19;;;;;;;3.97;3.40;;;;;;;;;;4808452;29;20058;-90
2022/02/02 20:07:51;;;;;;;5.20;3.42;;;;;;;;;;4682251;30;20057;-87
2022/02/02 20:11:29;;;;;;;12.85;3.67;;;;;;;;;;4765112;30;20055;-88
2022/02/02 20:14:37;;;;;;;8.63;4.53;;;;;;;;;;4763323;30;20058;-87
2022/02/02 20:17:28;;;;;;;8.45;3.53;;;;;;;;;;4771787;30;20133;-86
2022/02/02 20:21:16;;;;;;;13.00;4.40;;;;;;;;;;4792866;29;20043;-86
2022/02/02 20:24:07;;;;;;;7.13;4.43;;;;;;;;;;4766925;29;20062;-88
2022/02/02 20:26:49;;;;;;;16.83;7.47;;;;;;;;;;4782034;29;20065;-87
2022/02/02 20:29:24;;;;;;;8.82;5.57;;;;;;;;;;4801016;29;20063;-83
2022/02/02 20:32:15;;;;;;;6.45;4.72;;;;;;;;;;4784660;29;20064;-85
2022/02/02 20:35:26;;;;;;;9.43;5.85;;;;;;;;;;4790242;29;20059;-86
2022/02/02 20:37:58;;;;;;;9.07;5.05;;;;;;;;;;4774330;29;20055;-85
2022/02/02 20:40:49;;;;;;;13.85;6.18;;;;;;;;;;4784842;29;20422;-87
2022/02/02 20:46:35;;;;;;;4.75;3.83;;;;;;;;;;4802138;29;20074;-88
2022/02/02 21:14:24;;;;;;;6.22;3.72;;;;;;;;;;4793062;29;20405;-88
2022/02/02 21:16:52;;;;;;;6.45;3.33;;;;;;;;;;4808015;29;20058;-89
2022/02/02 21:19:33;;;;;;;4.30;3.88;;;;;;;;;;4755780;30;20070;-88
2022/02/02 21:22:06;;;;;;;4.38;3.95;;;;;;;;;;4754144;30;20058;-89
2022/02/02 21:25:05;;;;;;;9.70;5.72;;;;;;;;;;4771937;30;20063;-89
2022/02/02 21:27:41;;;;;;;8.82;4.20;;;;;;;;;;4756474;30;20056;-88
2022/02/02 21:30:09;;;;;;;4.85;4.45;;;;;;;;;;4754355;30;20060;-88
2022/02/02 21:32:38;;;;;;;6.78;4.10;;;;;;;;;;4768558;30;20044;-88
2022/02/02 21:35:08;;;;;;;9.80;3.67;;;;;;;;;;4771632;30;20078;-88
2022/02/02 21:37:39;;;;;;;13.48;5.55;;;;;;;;;;4753762;30;20056;-88
2022/02/02 21:40:20;;;;;;;5.68;5.07;;;;;;;;;;4752248;30;20537;-88
2022/02/02 21:42:49;;;;;;;;;;;;;;;;;;4787301;30;20059;-86
2022/02/02 21:45:18;;;;;;;15.95;4.50;;;;;;;;;;4783747;29;19930;-87
2022/02/02 21:47:47;;;;;;;8.20;6.25;;;;;;;;;;4773423;30;20051;-88
2022/02/02 21:50:18;;;;;;;3.97;3.58;;;;;;;;;;4766129;30;20086;-88
2022/02/02 21:52:47;;;;;;;6.25;3.33;;;;;;;;;;4779911;29;20054;-88
2022/02/02 21:55:16;;;;;;;9.80;4.65;;;;;;;;;;4769433;30;20183;-88
2022/02/02 21:57:55;;;;;;;5.68;3.38;;;;;;;;;;4759497;29;20051;-89
2022/02/02 22:00:23;;;;;;;10.70;3.47;;;;;;;;;;4775714;29;20520;-89
2022/02/02 22:02:52;;;;;;;4.47;4.03;;;;;;;;;;4805967;29;20066;-88
2022/02/02 22:05:20;;;;;;;4.93;2.92;;;;;;;;;;4786501;29;20059;-89
2022/02/02 22:07:48;;;;;;;4.90;3.08;;;;;;;;;;4749860;29;20058;-88
2022/02/02 22:10:18;;;;;;;3.92;3.38;;;;;;;;;;4788801;29;20062;-89
2022/02/02 22:12:47;;;;;;;7.13;2.90;;;;;;;;;;4796990;29;20039;-89
2022/02/02 22:15:22;;;;;;;3.60;3.22;;;;;;;;;;4770957;30;20063;-89
2022/02/02 22:17:51;;;;;;;3.30;2.78;;;;;;;;;;4785130;29;20810;-88
2022/02/02 22:20:19;;;;;;;3.45;3.10;;;;;;;;;;4784155;29;20043;-89
2022/02/02 22:22:49;;;;;;;7.10;4.07;;;;;;;;;;4790865;29;20573;-89
2022/02/02 22:25:20;;;;;;;6.25;2.30;;;;;;;;;;4802978;29;20500;-89
2022/02/02 22:28:01;;;;;;;5.00;2.42;;;;;;;;;;4788389;29;20065;-88
2022/02/02 22:30:40;;;;;;;5.10;3.28;;;;;;;;;;4780937;29;20066;-88
2022/02/02 22:33:50;;;;;;;;;;;;;;;;;;;;;
2022/02/02 22:37:17;;;;;;;;;;;;;;;;;;;;;
2022/02/02 22:41:04;;;;;;;11.25;3.38;;;;;;;;;;4741040;30;20055;-87
2022/02/02 22:44:17;;;;;;;6.43;3.97;;;;;;;;;;4763944;29;20052;-87
2022/02/02 22:47:35;;;;;;;3.42;3.00;;;;;;;;;;4747743;30;20093;-87
2022/02/02 22:50:29;;;;;;;2.85;2.63;;;;;;;;;;4747044;30;20052;-88
2022/02/02 22:53:58;;;;;;;6.32;4.15;;;;;;;;;;4743601;30;20043;-87
2022/02/02 22:57:15;;;;;;;3.42;2.33;;;;;;;;;;4685857;30;20068;-87
2022/02/02 23:00:33;;;;;;;5.78;2.50;;;;;;;;;;4717099;30;20059;-87
2022/02/02 23:03:50;;;;;;;4.53;2.33;;;;;;;;;;4767688;29;20055;-88
2022/02/02 23:06:44;;;;;;;1.98;1.80;;;;;;;;;;4744530;30;20071;-87
2022/02/02 23:10:23;;;;;;;;;;;;;;;;;;;;;
2022/02/02 23:14:06;;;;;;;5.35;2.38;;;;;;;;;;4735367;30;20060;-87
2022/02/02 23:21:49;;;;;;;11.48;3.10;;;;;;;;;;4732917;30;20162;-86
2022/02/02 23:25:49;;;;;;;6.88;3.47;;;;;;;;;;4761555;29;20129;-86
2022/02/02 23:29:29;;;;;;;5.50;4.25;;;;;;;;;;4723712;30;20052;-87
2022/02/02 23:32:52;;;;;;;2.95;2.75;;;;;;;;;;4752400;30;20059;-87
2022/02/02 23:36:07;;;;;;;8.18;3.25;;;;;;;;;;4755113;30;20059;-86
2022/02/02 23:39:27;;;;;;;3.35;3.05;;;;;;;;;;4749125;30;20542;-87
2022/02/02 23:42:42;;;;;;;7.35;2.90;;;;;;;;;;4726845;30;20627;-86
2022/02/02 23:46:08;;;;;;;5.35;3.47;;;;;;;;;;4744118;30;20044;-86
2022/02/02 23:53:24;;;;;;;8.55;3.03;;;;;;;;;;4770097;29;20048;-86
